Terminal Aerodrome Forecast
Issued by NWS Twin Cities, MN

Home | Current Version | Previous Version | Graphics & Text | Print | Product List | Glossary On
Versions: 1 2 3 4 5 6 7 8 9 10 11 12
516
FTUS43 KMPX 171122
TAFEAU
TAF
KEAU 171122Z 1712/1812 23005KT P6SM FEW120
     FM171700 22012G16KT P6SM SKC
     FM180000 23008KT P6SM SKC=

USA.gov is the U.S. government's official web portal to all federal, state and local government web resources and services.